createdAt,value
2023-04-15T05:48:28.934Z,9.20
2023-04-15T05:50:57.193Z,9.20
2023-04-15T05:53:25.380Z,9.10
2023-04-15T05:55:53.615Z,9.20
2023-04-15T05:58:21.990Z,9.10
2023-04-15T06:00:50.214Z,9.10
2023-04-15T06:03:19.892Z,9.20
2023-04-15T06:05:48.331Z,9.30
2023-04-15T06:08:16.455Z,9.20
2023-04-15T06:10:44.739Z,9.30
2023-04-15T06:13:13.001Z,9.40
2023-04-15T06:15:41.285Z,9.40
2023-04-15T06:18:09.439Z,9.40
2023-04-15T06:20:39.412Z,9.50
2023-04-15T06:23:07.597Z,9.50
2023-04-15T06:25:35.819Z,9.60
2023-04-15T06:28:03.988Z,9.60
2023-04-15T06:30:32.168Z,9.70
2023-04-15T06:33:00.393Z,9.80
2023-04-15T06:35:28.660Z,9.80
2023-04-15T06:37:58.212Z,9.90
2023-04-15T06:40:26.814Z,10.00
2023-04-15T08:02:25.999Z,16.40
2023-04-15T08:04:55.670Z,16.50
2023-04-15T08:07:23.908Z,16.50
2023-04-15T08:09:52.356Z,16.60
2023-04-15T08:12:20.623Z,16.80
2023-04-15T08:14:48.836Z,17.20
2023-04-15T08:17:16.999Z,17.40
2023-04-15T08:19:45.164Z,17.30
2023-04-15T08:22:16.077Z,17.70
2023-04-15T08:24:46.720Z,17.20
2023-04-15T08:27:14.860Z,17.30
2023-04-15T08:42:13.486Z,19.00
2023-04-15T08:44:41.906Z,19.10
2023-04-15T08:47:10.960Z,19.60
2023-04-15T08:52:10.508Z,19.90
2023-04-15T08:54:40.257Z,19.50
2023-04-15T09:17:04.410Z,21.00
2023-04-15T09:19:34.612Z,20.70
2023-04-15T09:22:04.255Z,20.80
2023-04-15T09:24:43.361Z,20.60
2023-04-15T09:27:12.986Z,20.90
2023-04-15T09:29:42.888Z,20.50
2023-04-15T09:32:12.459Z,20.50
2023-04-15T09:34:40.698Z,21.00
2023-04-15T09:37:10.990Z,21.00
2023-04-15T09:39:50.657Z,21.30
2023-04-15T09:42:24.504Z,21.40
2023-04-15T09:44:53.221Z,21.70
2023-04-15T09:47:39.193Z,22.10
2023-04-15T09:50:08.491Z,22.00
2023-04-15T09:52:43.988Z,22.30
2023-04-15T09:55:13.495Z,22.60
2023-04-15T09:57:44.383Z,22.40
2023-04-15T10:00:13.115Z,22.30
2023-04-15T10:02:44.936Z,22.90
2023-04-15T10:05:16.364Z,23.30
2023-04-15T10:07:45.854Z,23.30
2023-04-15T10:10:14.778Z,23.70
2023-04-15T10:12:45.536Z,23.60
2023-04-15T10:20:16.135Z,24.60
2023-04-15T10:22:46.477Z,24.60
2023-04-15T10:25:16.499Z,24.40
2023-04-15T10:30:17.561Z,23.80
2023-04-15T10:35:15.660Z,23.90
2023-04-15T10:37:43.821Z,24.10
2023-04-15T10:40:33.218Z,24.10
2023-04-15T10:43:03.619Z,24.30
2023-04-15T10:45:34.792Z,23.90
2023-04-15T10:48:04.612Z,23.60
2023-04-15T10:50:33.286Z,24.10
2023-04-15T10:53:04.115Z,24.50
2023-04-15T10:55:34.273Z,25.00
2023-04-15T10:58:04.248Z,25.50
2023-04-15T11:00:35.351Z,25.60
2023-04-15T11:03:08.466Z,24.60
2023-04-15T11:05:53.211Z,24.80
2023-04-15T11:08:23.745Z,25.20
2023-04-15T11:10:56.580Z,25.30
2023-04-15T11:13:31.804Z,25.70
2023-04-15T11:16:03.976Z,25.60
2023-04-15T11:18:33.844Z,26.00
2023-04-15T11:21:07.071Z,25.80
2023-04-15T11:23:41.255Z,26.20
2023-04-15T11:26:12.361Z,25.90
2023-04-15T11:28:43.385Z,25.70
2023-04-15T11:31:13.655Z,25.80
2023-04-15T11:33:56.545Z,25.40
2023-04-15T11:36:28.361Z,25.30
2023-04-15T11:41:25.576Z,25.50
2023-04-15T11:43:55.157Z,25.70
2023-04-15T11:46:30.019Z,26.00
2023-04-15T11:48:58.373Z,26.50
2023-04-15T11:51:26.540Z,26.80
2023-04-15T11:53:55.982Z,26.10
2023-04-15T11:56:25.590Z,25.90
2023-04-15T11:58:57.315Z,26.40
2023-04-15T12:01:33.212Z,26.30
2023-04-15T12:04:02.498Z,25.30
2023-04-15T12:06:35.093Z,25.80
2023-04-15T12:09:09.351Z,25.90
2023-04-15T12:11:40.322Z,26.10
2023-04-15T12:14:12.736Z,26.00
2023-04-15T12:16:48.488Z,26.10
2023-04-15T12:19:24.532Z,25.70
2023-04-15T12:22:00.230Z,26.00
2023-04-15T12:24:29.491Z,25.90
2023-04-15T12:26:59.252Z,26.70
2023-04-15T12:29:30.196Z,26.30
2023-04-15T12:31:59.993Z,25.90
2023-04-15T12:34:30.643Z,26.00
2023-04-15T12:37:00.699Z,26.40
2023-04-15T12:39:30.795Z,26.50
2023-04-15T12:42:00.460Z,26.20
2023-04-15T12:44:30.617Z,27.00
2023-04-15T12:46:59.893Z,26.70
2023-04-15T12:49:28.935Z,26.20
2023-04-15T12:51:59.587Z,25.60
2023-04-15T12:54:28.238Z,26.00
2023-04-15T12:56:56.790Z,25.40
2023-04-15T12:59:25.307Z,25.70
2023-04-15T13:01:55.140Z,25.00
2023-04-15T13:04:24.097Z,24.20
2023-04-15T13:06:52.362Z,25.10
2023-04-15T13:09:20.655Z,25.10
2023-04-15T13:11:48.792Z,25.10
2023-04-15T13:14:17.023Z,25.40
2023-04-15T13:16:45.692Z,24.80
2023-04-15T13:19:15.472Z,24.30
2023-04-15T13:21:43.665Z,24.70
2023-04-15T13:24:11.870Z,24.60
2023-04-15T13:29:08.544Z,25.20
2023-04-15T13:31:36.751Z,25.10
2023-04-15T13:41:33.796Z,25.60
2023-04-15T13:44:02.071Z,25.40
2023-04-15T13:46:30.350Z,24.80
2023-04-15T13:48:58.533Z,24.30
2023-04-15T13:51:27.098Z,25.00
2023-04-15T13:53:58.175Z,24.90
2023-04-15T13:56:26.692Z,24.90
2023-04-15T13:58:58.914Z,24.50
2023-04-15T14:01:27.452Z,24.20
2023-04-15T14:03:55.792Z,24.30
2023-04-15T14:06:24.051Z,24.00
2023-04-15T14:08:53.080Z,24.20
2023-04-15T14:11:22.662Z,24.00
2023-04-15T14:13:50.851Z,24.30
2023-04-15T14:16:19.095Z,24.30
2023-04-15T14:23:44.662Z,23.70
2023-04-15T14:26:13.761Z,23.60
2023-04-15T14:28:45.101Z,23.40
2023-04-15T14:31:14.321Z,23.60
2023-04-15T14:33:42.672Z,23.10
2023-04-15T14:41:09.117Z,23.30
2023-04-15T14:46:08.631Z,22.70
2023-04-15T14:48:37.044Z,22.70
2023-04-15T14:51:05.722Z,22.90
2023-04-15T14:53:33.994Z,22.90
2023-04-15T14:56:02.175Z,23.10
2023-04-15T14:58:30.381Z,22.60
2023-04-15T15:00:58.593Z,22.70
2023-04-15T15:03:28.260Z,22.50
2023-04-15T15:05:57.736Z,22.10
2023-04-15T15:08:26.115Z,21.90
2023-04-15T15:11:00.301Z,22.10
2023-04-15T15:13:28.530Z,22.30
2023-04-15T15:15:56.733Z,21.80
2023-04-15T15:18:25.652Z,22.20
2023-04-15T15:20:55.274Z,21.70
2023-04-15T15:23:23.425Z,22.00
2023-04-15T15:25:51.658Z,22.20
2023-04-15T15:28:21.794Z,21.70
2023-04-15T15:30:50.122Z,21.10
2023-04-15T15:38:16.672Z,21.40
2023-04-15T15:40:44.848Z,21.50
2023-04-15T15:45:41.915Z,21.00
2023-04-15T15:48:10.210Z,21.10
2023-04-15T15:50:38.460Z,21.90
2023-04-15T15:53:06.699Z,21.00
2023-04-15T15:55:36.269Z,21.00
2023-04-15T16:00:33.043Z,21.20
2023-04-15T16:05:39.902Z,20.70
2023-04-15T16:08:08.150Z,20.70
2023-04-15T16:10:38.805Z,20.40
2023-04-15T16:13:07.009Z,20.40
2023-04-15T16:28:18.592Z,19.70
2023-04-15T16:48:12.684Z,19.20
2023-04-15T16:50:40.869Z,19.10
2023-04-15T16:53:09.503Z,19.00
2023-04-15T16:55:37.637Z,18.70
2023-04-15T16:58:08.448Z,18.70
2023-04-15T17:00:37.262Z,18.60
2023-04-15T17:03:06.959Z,18.40
2023-04-15T17:05:35.463Z,18.50
2023-04-15T17:08:05.908Z,18.70
2023-04-15T17:13:02.501Z,18.30
2023-04-15T17:20:29.282Z,18.20
2023-04-15T17:22:57.736Z,18.10
2023-04-15T17:25:25.909Z,17.90
2023-04-15T17:27:54.068Z,17.80
2023-04-15T17:30:22.530Z,17.70
2023-04-15T17:35:23.073Z,17.30
2023-04-15T17:37:51.237Z,17.20
2023-04-15T17:40:19.509Z,17.30
2023-04-15T17:42:47.675Z,17.20
2023-04-15T17:45:16.129Z,17.20
2023-04-15T17:47:44.425Z,17.10
2023-04-15T17:50:14.045Z,16.90
2023-04-15T18:07:36.574Z,15.90
2023-04-15T18:10:05.262Z,15.80
2023-04-15T18:12:33.424Z,15.70
2023-04-15T18:15:01.788Z,15.60
2023-04-15T18:17:30.168Z,15.60
2023-04-15T18:20:02.789Z,15.30
2023-04-15T18:32:32.687Z,15.00
2023-04-15T18:35:01.075Z,14.80
2023-04-15T18:37:30.003Z,14.70
2023-04-15T18:39:58.514Z,14.60
2023-04-15T18:42:28.277Z,14.50
2023-04-15T18:44:56.582Z,14.60
2023-04-15T18:47:26.906Z,14.40
2023-04-15T18:52:23.856Z,14.20
2023-04-15T18:54:52.085Z,14.10
